createdAt,value
2023-01-08T00:03:14.980Z,99941.59
2023-01-08T00:07:17.618Z,99931.66
2023-01-08T00:11:19.186Z,99924.13
2023-01-08T00:15:20.730Z,99913.19
2023-01-08T00:19:22.363Z,99906.19
2023-01-08T00:23:24.472Z,99907.72
2023-01-08T00:27:26.088Z,99906.13
2023-01-08T00:31:27.656Z,99894.31
2023-01-08T00:35:29.338Z,99885.06
2023-01-08T00:39:30.916Z,99881.75
2023-01-08T00:43:32.682Z,99875.84
2023-01-08T00:47:34.254Z,99887.88
2023-01-08T00:51:35.875Z,99879.59
2023-01-08T00:55:37.426Z,99874.66
2023-01-08T00:59:38.935Z,99872.03
2023-01-08T01:03:40.988Z,99864.28
2023-01-08T01:07:43.910Z,99874.50
2023-01-08T01:11:45.525Z,99876.81
2023-01-08T01:15:56.996Z,99877.31
2023-01-08T01:19:58.580Z,99890.03
2023-01-08T01:24:03.965Z,99883.84
2023-01-08T01:28:05.538Z,99888.03
2023-01-08T01:32:07.193Z,99889.94
2023-01-08T01:36:11.086Z,99901.09
2023-01-08T01:40:12.712Z,99897.84
2023-01-08T01:44:43.778Z,99888.56
2023-01-08T01:48:46.578Z,99891.75
2023-01-08T01:52:53.801Z,99882.34
2023-01-08T01:56:56.427Z,99887.41
2023-01-08T02:01:01.474Z,99876.31
2023-01-08T02:05:03.490Z,99875.16
2023-01-08T02:09:30.790Z,99868.44
2023-01-08T02:13:36.933Z,99867.47
2023-01-08T02:17:56.862Z,99861.44
2023-01-08T02:22:36.362Z,99842.78
2023-01-08T02:26:38.450Z,99855.41
2023-01-08T02:30:40.547Z,99852.94
2023-01-08T02:34:42.077Z,99847.84
2023-01-08T02:39:12.805Z,99846.19
2023-01-08T02:43:21.821Z,99853.28
2023-01-08T02:47:32.153Z,99832.72
2023-01-08T02:51:51.389Z,99824.91
2023-01-08T02:55:58.981Z,99811.19
2023-01-08T03:00:00.522Z,99801.06
2023-01-08T03:04:13.951Z,99786.56
2023-01-08T03:08:17.401Z,99783.94
2023-01-08T03:12:25.270Z,99793.91
2023-01-08T03:16:35.561Z,99793.66
2023-01-08T03:20:38.847Z,99778.84
2023-01-08T03:24:42.692Z,99776.81
2023-01-08T03:28:47.275Z,99770.59
2023-01-08T03:32:51.390Z,99770.59
2023-01-08T03:36:55.537Z,99780.00
2023-01-08T03:41:05.123Z,99770.72
2023-01-08T03:45:07.293Z,99771.00
2023-01-08T03:49:09.441Z,99776.53
2023-01-08T03:53:11.025Z,99767.16
2023-01-08T03:57:12.588Z,99768.97
2023-01-08T04:01:14.338Z,99757.88
2023-01-08T04:05:16.055Z,99759.41
2023-01-08T04:09:17.651Z,99754.25
2023-01-08T04:13:19.201Z,99777.13
2023-01-08T04:17:20.771Z,99780.69
2023-01-08T04:21:22.301Z,99765.28
2023-01-08T04:25:23.837Z,99768.44
2023-01-08T04:29:25.574Z,99763.16
2023-01-08T04:33:27.098Z,99763.66
2023-01-08T04:37:28.626Z,99773.78
2023-01-08T04:41:30.192Z,99766.13
2023-01-08T04:45:31.731Z,99764.16
2023-01-08T04:49:33.268Z,99756.19
2023-01-08T04:53:37.464Z,99762.06
2023-01-08T04:57:38.994Z,99761.09
2023-01-08T05:01:40.634Z,99757.59
2023-01-08T05:05:42.226Z,99763.56
2023-01-08T05:09:43.729Z,99762.72
2023-01-08T05:13:48.906Z,99763.72
2023-01-08T05:17:58.179Z,99771.31
2023-01-08T05:21:59.807Z,99769.59
2023-01-08T05:26:03.699Z,99771.88
2023-01-08T05:30:05.872Z,99771.03
2023-01-08T05:34:07.411Z,99766.88
2023-01-08T05:38:08.977Z,99761.84
2023-01-08T05:42:10.531Z,99747.19
2023-01-08T05:46:12.218Z,99751.53
2023-01-08T05:50:13.817Z,99736.06
2023-01-08T05:54:15.901Z,99742.13
2023-01-08T05:58:20.986Z,99739.81
2023-01-08T06:02:22.542Z,99735.69
2023-01-08T06:06:24.191Z,99722.03
2023-01-08T06:10:26.319Z,99728.00
2023-01-08T06:14:27.877Z,99728.09
2023-01-08T06:18:30.375Z,99724.00
2023-01-08T06:22:33.544Z,99734.28
2023-01-08T06:26:35.447Z,99740.41
2023-01-08T06:30:37.006Z,99741.41
2023-01-08T06:34:38.557Z,99738.97
2023-01-08T06:38:40.122Z,99733.88
2023-01-08T06:42:43.222Z,99748.38
2023-01-08T06:46:44.958Z,99747.72
2023-01-08T06:50:46.641Z,99752.03
2023-01-08T06:54:48.231Z,99738.56
2023-01-08T06:58:49.806Z,99754.75
2023-01-08T07:02:52.210Z,99742.91
2023-01-08T07:06:53.865Z,99753.28
2023-01-08T07:10:55.706Z,99763.50
2023-01-08T07:14:57.301Z,99765.22
2023-01-08T07:18:58.912Z,99752.44
2023-01-08T07:23:05.242Z,99753.44
2023-01-08T07:27:06.906Z,99757.69
2023-01-08T07:31:08.940Z,99750.91
2023-01-08T07:35:10.538Z,99749.34
2023-01-08T07:39:12.123Z,99756.09
2023-01-08T07:43:14.208Z,99766.38
2023-01-08T07:47:16.041Z,99770.72
2023-01-08T07:51:17.646Z,99769.91
2023-01-08T07:55:19.271Z,99763.06
2023-01-08T07:59:20.898Z,99765.56
2023-01-08T08:03:22.978Z,99753.75
2023-01-08T08:07:24.815Z,99752.78
2023-01-08T08:11:26.380Z,99758.88
2023-01-08T08:15:27.966Z,99747.75
2023-01-08T08:19:29.517Z,99755.47
2023-01-08T08:23:32.408Z,99754.72
2023-01-08T08:27:33.948Z,99754.03
2023-01-08T08:31:35.657Z,99737.91
2023-01-08T08:35:37.843Z,99743.94
2023-01-08T08:39:39.428Z,99736.31
2023-01-08T08:43:41.017Z,99744.06
2023-01-08T08:47:42.642Z,99745.94
2023-01-08T08:51:44.283Z,99745.94
2023-01-08T08:55:45.845Z,99745.09
2023-01-08T08:59:47.413Z,99723.81
2023-01-08T09:03:49.784Z,99718.81
2023-01-08T09:07:52.153Z,99726.50
2023-01-08T09:11:54.225Z,99727.44
2023-01-08T09:15:58.431Z,99722.53
2023-01-08T09:20:00.048Z,99713.88
2023-01-08T09:24:01.784Z,99715.66
2023-01-08T09:28:06.404Z,99709.84
2023-01-08T09:32:08.884Z,99709.06
2023-01-08T09:36:11.739Z,99713.69
2023-01-08T09:40:16.396Z,99697.78
2023-01-08T09:44:24.882Z,99700.50
2023-01-08T09:48:29.878Z,99708.38
2023-01-08T09:52:32.329Z,99706.69
2023-01-08T09:56:35.468Z,99700.72
2023-01-08T10:00:37.142Z,99714.44
2023-01-08T10:04:38.770Z,99711.88
2023-01-08T10:08:40.958Z,99705.97
2023-01-08T10:12:42.618Z,99712.94
2023-01-08T10:16:46.464Z,99716.28
2023-01-08T10:20:47.980Z,99708.66
2023-01-08T10:24:51.660Z,99707.09
2023-01-08T10:29:18.638Z,99715.72
2023-01-08T10:33:25.635Z,99694.53
2023-01-08T10:37:37.564Z,99688.63
2023-01-08T10:41:39.855Z,99686.31
2023-01-08T10:45:42.984Z,99678.06
2023-01-08T10:49:45.511Z,99661.22
2023-01-08T10:53:47.572Z,99660.22
2023-01-08T10:58:00.001Z,99663.56
2023-01-08T11:02:02.295Z,99654.06
2023-01-08T11:06:19.078Z,99646.56
2023-01-08T11:10:26.891Z,99632.25
2023-01-08T11:14:35.229Z,99632.69
2023-01-08T11:18:46.714Z,99637.34
2023-01-08T11:22:48.392Z,99616.03
2023-01-08T11:27:12.821Z,99612.91
2023-01-08T11:31:21.439Z,99602.88
2023-01-08T11:35:50.325Z,99592.16
2023-01-08T11:39:53.762Z,99582.06
2023-01-08T11:44:20.211Z,99584.16
2023-01-08T11:48:30.582Z,99571.69
2023-01-08T11:52:57.047Z,99563.00
2023-01-08T11:56:58.560Z,99551.34
2023-01-08T12:01:07.532Z,99550.63
2023-01-08T12:05:35.176Z,99544.66
2023-01-08T12:09:46.255Z,99533.69
2023-01-08T12:14:06.515Z,99530.59
2023-01-08T12:18:35.639Z,99528.94
2023-01-08T12:22:47.060Z,99518.47
2023-01-08T12:27:54.668Z,99524.16
2023-01-08T12:32:18.758Z,99516.28
2023-01-08T12:36:36.167Z,99517.91
2023-01-08T12:40:45.040Z,99513.56
2023-01-08T12:44:47.572Z,99500.78
2023-01-08T12:48:52.025Z,99498.13
2023-01-08T12:53:12.911Z,99491.13
2023-01-08T12:57:37.960Z,99489.38
2023-01-08T13:02:07.382Z,99492.72
2023-01-08T13:06:13.656Z,99485.81
2023-01-08T13:10:41.021Z,99478.91
2023-01-08T13:14:45.950Z,99487.41
2023-01-08T13:19:01.319Z,99480.53
2023-01-08T13:23:05.500Z,99468.38
2023-01-08T13:27:17.281Z,99458.03
2023-01-08T13:31:21.572Z,99459.78
2023-01-08T13:35:26.660Z,99449.53
2023-01-08T13:39:36.644Z,99446.97
2023-01-08T13:43:40.270Z,99452.13
2023-01-08T13:47:43.209Z,99442.72
2023-01-08T13:51:47.330Z,99439.22
2023-01-08T13:56:01.131Z,99445.88
2023-01-08T14:00:05.647Z,99441.56
2023-01-08T14:04:07.107Z,99420.13
2023-01-08T14:08:21.843Z,99418.53
2023-01-08T14:12:24.979Z,99411.75
2023-01-08T14:16:26.607Z,99403.09
2023-01-08T14:20:31.240Z,99397.84
2023-01-08T14:24:33.566Z,99404.75
2023-01-08T14:28:35.529Z,99408.16
2023-01-08T14:32:43.145Z,99401.28
2023-01-08T14:36:45.320Z,99410.69
2023-01-08T14:41:01.778Z,99396.97
2023-01-08T14:45:14.824Z,99390.03
2023-01-08T14:49:27.651Z,99387.53
2023-01-08T14:53:36.714Z,99392.56
2023-01-08T14:57:38.320Z,99411.19
2023-01-08T15:01:40.181Z,99381.13
2023-01-08T15:05:49.044Z,99378.50
2023-01-08T15:09:58.974Z,99383.53
2023-01-08T15:14:00.669Z,99375.69
2023-01-08T15:18:05.617Z,99368.59
2023-01-08T15:22:17.315Z,99361.63
2023-01-08T15:26:19.067Z,99356.22
2023-01-08T15:30:43.719Z,99357.00
2023-01-08T15:34:46.243Z,99359.66
2023-01-08T15:38:48.828Z,99355.53
2023-01-08T15:43:08.952Z,99348.00
2023-01-08T15:47:10.560Z,99340.28
2023-01-08T15:51:12.161Z,99330.94
2023-01-08T15:55:19.014Z,99320.69
2023-01-08T15:59:20.575Z,99315.59
2023-01-08T16:03:25.337Z,99310.47
2023-01-08T16:07:26.845Z,99307.00
2023-01-08T16:11:28.457Z,99307.78
2023-01-08T16:15:30.927Z,99309.53
2023-01-08T16:19:32.817Z,99310.41
2023-01-08T16:23:35.732Z,99300.13
2023-01-08T16:27:38.423Z,99299.97
2023-01-08T16:31:44.516Z,99296.31
2023-01-08T16:35:56.614Z,99295.22
2023-01-08T16:39:58.139Z,99289.09
2023-01-08T16:43:59.689Z,99288.94
2023-01-08T16:48:02.939Z,99281.91
2023-01-08T16:52:04.825Z,99278.38
2023-01-08T16:56:08.120Z,99276.63
2023-01-08T17:00:10.421Z,99269.72
2023-01-08T17:04:12.077Z,99264.47
2023-01-08T17:08:16.227Z,99261.03
2023-01-08T17:12:22.530Z,99253.28
2023-01-08T17:16:24.410Z,99236.13
2023-01-08T17:20:26.032Z,99242.84
2023-01-08T17:24:27.654Z,99229.91
2023-01-08T17:28:29.625Z,99224.66
2023-01-08T17:32:31.228Z,99216.09
2023-01-08T17:36:34.053Z,99212.56
2023-01-08T17:40:36.324Z,99203.00
2023-01-08T17:44:37.982Z,99198.56
2023-01-08T17:48:41.919Z,99192.50
2023-01-08T17:52:43.562Z,99179.59
2023-01-08T17:56:45.685Z,99180.47
2023-01-08T18:00:47.328Z,99175.41
2023-01-08T18:04:49.021Z,99177.22
2023-01-08T18:08:50.586Z,99179.84
2023-01-08T18:12:52.160Z,99185.09
2023-01-08T18:16:53.790Z,99188.53
2023-01-08T18:20:55.643Z,99180.13
2023-01-08T18:24:57.189Z,99169.94
2023-01-08T18:28:58.792Z,99171.66
2023-01-08T18:33:00.316Z,99176.00
2023-01-08T18:37:01.882Z,99164.09
2023-01-08T18:41:04.088Z,99159.81
2023-01-08T18:45:06.230Z,99156.41
2023-01-08T18:49:07.863Z,99143.72
2023-01-08T18:53:09.711Z,99147.16
2023-01-08T18:57:11.511Z,99129.31
2023-01-08T19:01:13.659Z,99115.78
2023-01-08T19:05:17.265Z,99108.88
2023-01-08T19:09:18.961Z,99106.44
2023-01-08T19:13:20.761Z,99114.88
2023-01-08T19:17:22.373Z,99098.75
2023-01-08T19:21:23.998Z,99087.66
2023-01-08T19:25:25.808Z,99091.13
2023-01-08T19:29:27.333Z,99086.91
2023-01-08T19:33:29.326Z,99070.75
2023-01-08T19:37:32.258Z,99068.31
2023-01-08T19:41:52.489Z,99052.97
2023-01-08T19:45:54.133Z,99038.44
2023-01-08T19:49:55.691Z,99038.47
2023-01-08T19:53:58.205Z,99034.34
2023-01-08T19:57:59.844Z,99027.59
2023-01-08T20:02:01.729Z,99013.00
2023-01-08T20:06:36.014Z,99016.41
2023-01-08T20:10:37.538Z,99004.44
2023-01-08T20:14:39.178Z,98998.44
2023-01-08T20:18:41.210Z,99003.59
2023-01-08T20:22:42.815Z,98990.72
2023-01-08T20:26:45.409Z,98990.63
2023-01-08T20:30:47.083Z,98982.91
2023-01-08T20:34:48.721Z,98970.97
2023-01-08T20:38:52.676Z,98974.38
2023-01-08T20:42:54.273Z,98978.66
2023-01-08T20:46:55.800Z,98965.88
2023-01-08T20:50:59.958Z,98962.50
2023-01-08T20:55:01.618Z,98960.88
2023-01-08T20:59:03.764Z,98958.41
2023-01-08T21:03:05.463Z,98944.75
2023-01-08T21:07:07.966Z,98942.97
2023-01-08T21:11:10.591Z,98943.69
2023-01-08T21:15:12.428Z,98930.94
2023-01-08T21:19:15.300Z,98927.53
2023-01-08T21:23:16.809Z,98921.47
2023-01-08T21:27:18.417Z,98916.34
2023-01-08T21:31:22.476Z,98907.72
2023-01-08T21:35:25.502Z,98904.38
2023-01-08T21:39:27.088Z,98895.06
2023-01-08T21:43:47.483Z,98891.66
2023-01-08T21:47:49.204Z,98883.09
2023-01-08T21:52:09.695Z,98887.41
2023-01-08T21:56:11.293Z,98873.69
2023-01-08T22:00:14.388Z,98867.69
2023-01-08T22:04:16.009Z,98866.84
2023-01-08T22:08:18.480Z,98859.22
2023-01-08T22:12:20.644Z,98848.06
2023-01-08T22:16:22.209Z,98854.72
2023-01-08T22:20:23.959Z,98833.44
2023-01-08T22:24:25.619Z,98827.47
2023-01-08T22:28:27.170Z,98814.66
2023-01-08T22:32:28.755Z,98831.63
2023-01-08T22:36:30.368Z,98820.53
2023-01-08T22:40:31.933Z,98806.94
2023-01-08T22:44:33.726Z,98805.25
2023-01-08T22:48:35.398Z,98804.38
2023-01-08T22:52:36.951Z,98818.03
2023-01-08T22:56:38.904Z,98812.09
2023-01-08T23:00:40.927Z,98818.13
2023-01-08T23:04:42.572Z,98826.66
2023-01-08T23:08:44.778Z,98831.03
2023-01-08T23:12:46.527Z,98817.47
2023-01-08T23:16:48.117Z,98829.44
2023-01-08T23:20:49.711Z,98818.38
2023-01-08T23:24:51.380Z,98820.03
2023-01-08T23:28:54.194Z,98813.19
2023-01-08T23:32:55.704Z,98815.69
2023-01-08T23:36:57.316Z,98813.06
2023-01-08T23:40:59.419Z,98807.91
2023-01-08T23:45:01.017Z,98800.94
2023-01-08T23:49:02.655Z,98807.75
2023-01-08T23:53:04.500Z,98798.31
2023-01-08T23:57:06.590Z,98788.94
